createdAt,value
2022-10-19T00:00:14.685Z,13.23
2022-10-19T00:02:40.864Z,13.23
2022-10-19T00:05:07.113Z,12.98
2022-10-19T00:07:33.521Z,12.45
2022-10-19T00:09:59.929Z,12.05
2022-10-19T00:12:26.086Z,13.85
2022-10-19T00:14:52.427Z,12.00
2022-10-19T00:17:18.595Z,11.32
2022-10-19T00:19:44.981Z,11.63
2022-10-19T00:22:13.181Z,12.35
2022-10-19T00:24:40.257Z,10.77
2022-10-19T00:27:06.628Z,11.15
2022-10-19T00:29:32.842Z,9.73
2022-10-19T00:31:59.045Z,9.70
2022-10-19T00:34:25.168Z,9.82
2022-10-19T00:36:51.340Z,9.93
2022-10-19T00:39:17.496Z,9.90
2022-10-19T00:41:43.896Z,9.63
2022-10-19T00:44:10.079Z,9.57
2022-10-19T00:46:36.291Z,9.70
2022-10-19T00:49:03.274Z,10.45
2022-10-19T00:51:31.132Z,9.90
2022-10-19T00:53:57.423Z,9.48
2022-10-19T00:56:23.684Z,9.45
2022-10-19T00:58:50.010Z,10.82
2022-10-19T01:01:16.426Z,9.70
2022-10-19T01:03:42.874Z,9.88
2022-10-19T01:06:09.016Z,11.57
2022-10-19T01:08:35.293Z,10.13
2022-10-19T01:11:01.468Z,9.77
2022-10-19T01:13:27.663Z,9.88
2022-10-19T01:18:19.922Z,11.00
2022-10-19T01:20:46.251Z,9.45
2022-10-19T01:23:12.396Z,10.50
2022-10-19T01:25:38.530Z,9.98
2022-10-19T01:28:04.857Z,9.32
2022-10-19T01:30:30.991Z,10.40
2022-10-19T01:32:57.325Z,10.68
2022-10-19T01:35:23.503Z,10.52
2022-10-19T01:37:49.674Z,10.07
2022-10-19T01:40:15.852Z,10.27
2022-10-19T01:42:42.092Z,10.60
2022-10-19T01:45:08.292Z,12.65
2022-10-19T01:47:34.663Z,9.50
2022-10-19T01:50:01.078Z,11.07
2022-10-19T01:52:28.335Z,10.93
2022-10-19T01:54:54.505Z,15.23
2022-10-19T01:57:20.794Z,9.70
2022-10-19T01:59:47.094Z,10.50
2022-10-19T02:02:13.240Z,9.70
2022-10-19T02:04:39.414Z,13.80
2022-10-19T02:07:05.546Z,11.38
2022-10-19T02:09:31.703Z,13.68
2022-10-19T02:11:57.843Z,10.57
2022-10-19T02:14:24.216Z,13.57
2022-10-19T02:16:50.440Z,9.82
2022-10-19T02:19:16.644Z,10.45
2022-10-19T02:21:42.864Z,13.38
2022-10-19T02:24:09.174Z,12.93
2022-10-19T02:26:35.393Z,10.18
2022-10-19T02:29:01.585Z,10.75
2022-10-19T02:31:27.878Z,8.52
2022-10-19T02:33:54.056Z,12.38
2022-10-19T02:36:20.233Z,9.60
2022-10-19T02:38:46.492Z,13.10
2022-10-19T02:41:12.651Z,9.30
2022-10-19T02:43:38.827Z,9.40
2022-10-19T02:46:05.000Z,9.50
2022-10-19T02:48:31.253Z,9.50
2022-10-19T02:50:57.450Z,9.13
2022-10-19T02:53:23.633Z,9.43
2022-10-19T02:55:50.165Z,9.00
2022-10-19T02:58:16.452Z,10.57
2022-10-19T03:00:42.659Z,9.75
2022-10-19T03:03:08.863Z,10.75
2022-10-19T03:05:35.127Z,21.75
2022-10-19T03:08:01.376Z,13.70
2022-10-19T03:10:27.776Z,15.85
2022-10-19T03:12:54.026Z,15.65
2022-10-19T03:15:20.329Z,17.73
2022-10-19T03:17:46.653Z,12.43
2022-10-19T03:20:13.030Z,17.80
2022-10-19T03:22:39.194Z,28.52
2022-10-19T03:25:05.330Z,16.02
2022-10-19T03:27:31.781Z,19.35
2022-10-19T03:29:58.205Z,13.50
2022-10-19T03:32:24.357Z,15.70
2022-10-19T03:34:50.511Z,13.60
2022-10-19T03:37:16.838Z,14.38
2022-10-19T03:39:43.033Z,8.77
2022-10-19T03:42:09.157Z,12.45
2022-10-19T03:44:35.337Z,12.02
2022-10-19T03:47:01.696Z,8.90
2022-10-19T03:49:27.848Z,9.68
2022-10-19T03:51:54.077Z,9.57
2022-10-19T03:54:22.518Z,13.73
2022-10-19T03:56:52.605Z,14.40
2022-10-19T03:59:18.919Z,8.52
2022-10-19T04:01:45.040Z,9.27
2022-10-19T04:04:12.239Z,11.50
2022-10-19T04:06:38.447Z,11.18
2022-10-19T04:09:04.624Z,12.93
2022-10-19T04:11:30.758Z,9.45
2022-10-19T04:13:57.131Z,11.85
2022-10-19T04:16:23.305Z,9.35
2022-10-19T04:18:49.469Z,11.82
2022-10-19T04:21:15.667Z,9.43
2022-10-19T04:23:41.921Z,10.05
2022-10-19T04:26:08.108Z,13.02
2022-10-19T04:28:34.296Z,12.32
2022-10-19T04:31:00.483Z,11.48
2022-10-19T04:33:26.739Z,10.27
2022-10-19T04:35:52.928Z,12.98
2022-10-19T04:38:19.109Z,11.68
2022-10-19T04:40:45.384Z,34.45
2022-10-19T04:43:11.713Z,11.75
2022-10-19T04:45:37.877Z,7.30
2022-10-19T04:48:04.247Z,18.50
2022-10-19T04:50:30.406Z,15.32
2022-10-19T04:52:56.570Z,17.50
2022-10-19T04:55:22.800Z,14.02
2022-10-19T04:57:48.993Z,8.48
2022-10-19T05:00:15.176Z,10.20
2022-10-19T05:02:41.375Z,19.95
2022-10-19T05:05:07.506Z,20.88
2022-10-19T05:07:33.873Z,10.57
2022-10-19T05:10:00.308Z,8.48
2022-10-19T05:12:26.438Z,9.27
2022-10-19T05:14:52.595Z,11.45
2022-10-19T05:17:18.775Z,9.82
2022-10-19T05:19:44.937Z,8.77
2022-10-19T05:22:11.232Z,8.65
2022-10-19T05:24:37.405Z,7.40
2022-10-19T05:27:03.722Z,9.95
2022-10-19T05:29:29.875Z,8.73
2022-10-19T05:31:56.041Z,16.20
2022-10-19T05:34:22.171Z,8.48
2022-10-19T05:36:48.498Z,8.45
2022-10-19T05:39:14.637Z,8.63
2022-10-19T05:41:40.909Z,11.63
2022-10-19T05:44:07.073Z,12.82
2022-10-19T05:46:33.266Z,10.38
2022-10-19T05:48:59.455Z,9.82
2022-10-19T05:51:25.620Z,11.25
2022-10-19T05:53:51.968Z,9.73
2022-10-19T05:56:18.116Z,12.55
2022-10-19T05:58:44.355Z,10.95
2022-10-19T06:01:10.570Z,13.88
2022-10-19T06:03:36.866Z,10.43
2022-10-19T06:06:03.299Z,7.05
2022-10-19T06:08:29.444Z,6.93
2022-10-19T06:10:55.620Z,8.27
2022-10-19T06:13:21.885Z,9.95
2022-10-19T06:15:48.064Z,10.32
2022-10-19T06:18:14.289Z,11.93
2022-10-19T06:20:40.663Z,10.80
2022-10-19T06:23:06.829Z,7.72
2022-10-19T06:25:33.166Z,11.48
2022-10-19T06:27:59.434Z,8.95
2022-10-19T06:30:25.987Z,11.10
2022-10-19T06:32:52.544Z,10.90
2022-10-19T06:35:19.134Z,7.20
2022-10-19T06:37:45.432Z,10.48
2022-10-19T06:40:11.850Z,6.18
2022-10-19T06:42:38.060Z,6.18
2022-10-19T06:45:04.550Z,7.07
2022-10-19T06:47:30.758Z,6.72
2022-10-19T06:49:57.028Z,6.85
2022-10-19T06:52:23.241Z,6.47
2022-10-19T06:54:49.467Z,6.85
2022-10-19T06:57:16.840Z,9.10
2022-10-19T06:59:43.249Z,8.95
2022-10-19T07:02:09.601Z,8.75
2022-10-19T07:04:35.798Z,7.28
2022-10-19T07:07:02.027Z,7.45
2022-10-19T07:09:28.179Z,8.52
2022-10-19T07:11:54.381Z,7.80
2022-10-19T07:14:20.558Z,7.88
2022-10-19T07:16:46.740Z,12.30
2022-10-19T07:19:14.115Z,8.02
2022-10-19T07:21:40.267Z,9.10
2022-10-19T07:24:06.462Z,7.55
2022-10-19T07:26:32.625Z,8.27
2022-10-19T07:28:58.823Z,8.50
2022-10-19T07:31:25.036Z,9.23
2022-10-19T07:33:51.206Z,7.72
2022-10-19T07:36:17.346Z,8.23
2022-10-19T07:38:43.509Z,7.63
2022-10-19T07:41:09.656Z,7.18
2022-10-19T07:43:38.171Z,7.82
2022-10-19T07:46:04.335Z,9.25
2022-10-19T07:48:30.495Z,8.68
2022-10-19T07:50:56.653Z,8.93
2022-10-19T07:53:22.800Z,10.13
2022-10-19T07:55:48.938Z,9.90
2022-10-19T07:58:15.063Z,11.00
2022-10-19T08:00:41.266Z,9.55
2022-10-19T08:05:53.591Z,9.52
2022-10-19T08:08:19.747Z,9.35
2022-10-19T08:10:45.894Z,9.93
2022-10-19T08:13:12.019Z,9.32
2022-10-19T08:15:38.187Z,9.25
2022-10-19T08:18:04.320Z,10.15
2022-10-19T08:20:30.455Z,10.25
2022-10-19T08:22:59.002Z,9.45
2022-10-19T08:25:25.409Z,10.50
2022-10-19T08:27:51.583Z,9.18
2022-10-19T08:30:17.700Z,9.75
2022-10-19T08:32:43.827Z,9.98
2022-10-19T08:35:10.824Z,9.80
2022-10-19T08:37:44.827Z,8.88
2022-10-19T08:40:11.841Z,8.88
2022-10-19T08:42:37.990Z,8.75
2022-10-19T08:45:04.131Z,9.07
2022-10-19T08:47:30.268Z,9.95
2022-10-19T08:49:56.375Z,10.15
2022-10-19T08:52:22.556Z,9.45
2022-10-19T08:54:48.672Z,10.15
2022-10-19T08:57:14.836Z,9.02
2022-10-19T08:59:40.956Z,10.07
2022-10-19T09:02:07.120Z,10.43
2022-10-19T09:04:33.248Z,9.95
2022-10-19T09:06:59.412Z,10.13
2022-10-19T09:09:25.538Z,9.98
2022-10-19T09:11:51.653Z,9.07
2022-10-19T09:14:17.814Z,10.02
2022-10-19T09:16:44.007Z,8.90
2022-10-19T09:19:10.185Z,9.25
2022-10-19T09:21:46.066Z,9.23
2022-10-19T09:24:13.384Z,9.02
2022-10-19T09:26:39.520Z,8.82
2022-10-19T09:29:05.675Z,9.88
2022-10-19T09:31:32.427Z,7.60
2022-10-19T09:33:59.009Z,7.90
2022-10-19T09:36:39.380Z,7.90
2022-10-19T09:39:11.331Z,7.28
2022-10-19T09:41:37.494Z,6.93
2022-10-19T09:44:03.645Z,8.05
2022-10-19T09:46:29.897Z,5.80
2022-10-19T09:48:56.105Z,7.20
2022-10-19T09:51:22.273Z,5.78
2022-10-19T09:53:48.423Z,5.40
2022-10-19T09:56:14.708Z,4.15
2022-10-19T09:58:40.984Z,4.10
2022-10-19T10:01:07.173Z,4.18
2022-10-19T10:03:33.339Z,4.13
2022-10-19T10:05:59.521Z,4.60
2022-10-19T10:08:25.782Z,3.63
2022-10-19T10:10:52.016Z,3.78
2022-10-19T10:13:18.151Z,3.50
2022-10-19T10:15:44.348Z,3.30
2022-10-19T10:18:10.507Z,2.88
2022-10-19T10:20:36.675Z,2.67
2022-10-19T10:23:02.836Z,3.20
2022-10-19T10:25:29.000Z,2.90
2022-10-19T10:27:55.173Z,2.63
2022-10-19T10:30:21.338Z,3.03
2022-10-19T10:32:48.184Z,2.92
2022-10-19T10:35:14.382Z,3.13
2022-10-19T10:37:43.165Z,3.38
2022-10-19T10:40:09.450Z,3.13
2022-10-19T10:42:35.865Z,2.78
2022-10-19T10:45:02.279Z,2.80
2022-10-19T10:47:28.401Z,2.90
2022-10-19T10:49:54.537Z,2.67
2022-10-19T10:52:20.676Z,2.47
2022-10-19T10:54:46.846Z,2.35
2022-10-19T10:57:13.145Z,2.30
2022-10-19T10:59:41.759Z,2.40
2022-10-19T11:02:11.606Z,2.40
2022-10-19T11:04:37.769Z,2.22
2022-10-19T11:07:03.918Z,2.75
2022-10-19T11:09:30.059Z,2.33
2022-10-19T11:11:56.230Z,2.35
2022-10-19T11:14:22.367Z,2.17
2022-10-19T11:16:48.507Z,1.80
2022-10-19T11:21:45.715Z,1.70
2022-10-19T11:24:11.834Z,1.90
2022-10-19T11:26:37.959Z,2.10
2022-10-19T11:29:04.111Z,1.98
2022-10-19T11:31:30.240Z,1.67
2022-10-19T11:33:56.384Z,2.10
2022-10-19T11:36:22.515Z,2.15
2022-10-19T11:38:48.676Z,1.92
2022-10-19T11:41:18.912Z,2.00
2022-10-19T11:43:45.461Z,2.40
2022-10-19T11:46:11.616Z,1.88
2022-10-19T11:48:40.375Z,2.05
2022-10-19T11:51:21.002Z,2.15
2022-10-19T11:53:48.064Z,1.98
2022-10-19T11:56:14.278Z,1.95
2022-10-19T11:58:40.413Z,1.80
2022-10-19T12:01:06.543Z,1.52
2022-10-19T12:03:32.742Z,1.60
2022-10-19T12:05:58.867Z,1.42
2022-10-19T12:08:25.074Z,1.60
2022-10-19T12:10:51.244Z,1.50
2022-10-19T12:13:17.414Z,1.60
2022-10-19T12:15:45.606Z,1.50
2022-10-19T12:18:11.762Z,1.60
2022-10-19T12:20:37.911Z,1.60
2022-10-19T12:23:04.054Z,1.70
2022-10-19T12:25:30.182Z,1.58
2022-10-19T12:27:56.308Z,1.40
2022-10-19T12:30:22.497Z,1.80
2022-10-19T12:32:53.399Z,1.80
2022-10-19T12:37:46.621Z,1.70
2022-10-19T12:40:12.842Z,1.90
2022-10-19T12:42:38.983Z,2.10
2022-10-19T12:45:05.159Z,1.90
2022-10-19T12:47:31.298Z,1.75
2022-10-19T12:49:57.477Z,2.10
2022-10-19T12:52:23.667Z,1.83
2022-10-19T12:54:49.803Z,1.90
2022-10-19T12:57:19.420Z,2.00
2022-10-19T12:59:48.115Z,1.85
2022-10-19T13:02:14.304Z,1.80
2022-10-19T13:04:40.625Z,1.65
2022-10-19T13:07:06.875Z,2.35
2022-10-19T13:09:33.051Z,2.03
2022-10-19T13:11:59.155Z,2.22
2022-10-19T13:14:25.308Z,2.40
2022-10-19T13:16:51.433Z,1.77
2022-10-19T13:19:17.588Z,2.40
2022-10-19T13:21:43.758Z,2.00
2022-10-19T13:24:09.925Z,1.80
2022-10-19T13:26:36.121Z,2.08
2022-10-19T13:29:02.261Z,1.85
2022-10-19T13:31:28.514Z,2.20
2022-10-19T13:33:54.691Z,1.90
2022-10-19T13:36:20.852Z,1.80
2022-10-19T13:38:47.018Z,1.92
2022-10-19T13:41:13.166Z,2.00
2022-10-19T13:43:39.301Z,1.83
2022-10-19T13:46:08.208Z,2.10
2022-10-19T13:48:34.357Z,1.77
2022-10-19T13:51:00.488Z,2.00
2022-10-19T13:53:26.640Z,1.67
2022-10-19T13:55:52.824Z,1.60
2022-10-19T13:58:18.991Z,1.80
2022-10-19T14:00:45.126Z,1.80
2022-10-19T14:03:11.863Z,1.60
2022-10-19T14:08:09.164Z,2.13
2022-10-19T14:10:56.292Z,1.98
2022-10-19T14:13:21.413Z,2.00
2022-10-19T14:15:47.627Z,1.98
2022-10-19T14:18:19.199Z,2.13
2022-10-19T14:20:45.616Z,2.45
2022-10-19T14:23:11.788Z,2.05
2022-10-19T14:25:37.916Z,2.03
2022-10-19T14:28:04.033Z,2.58
2022-10-19T14:30:30.189Z,2.75
2022-10-19T14:32:59.416Z,2.85
2022-10-19T14:35:28.312Z,2.45
2022-10-19T14:37:54.450Z,2.60
2022-10-19T14:40:24.934Z,2.90
2022-10-19T14:42:53.952Z,2.42
2022-10-19T14:45:20.087Z,2.38
2022-10-19T14:47:46.208Z,2.80
2022-10-19T14:50:12.349Z,2.83
2022-10-19T14:52:38.467Z,2.60
2022-10-19T14:55:04.608Z,2.42
2022-10-19T14:57:30.725Z,2.45
2022-10-19T14:59:56.883Z,2.40
2022-10-19T15:02:23.041Z,2.63
2022-10-19T15:04:49.167Z,2.95
2022-10-19T15:07:15.309Z,3.10
2022-10-19T15:09:48.330Z,2.60
2022-10-19T15:12:14.837Z,2.72
2022-10-19T15:14:40.934Z,2.72
2022-10-19T15:17:07.059Z,2.60
2022-10-19T15:19:33.190Z,2.80
2022-10-19T15:21:59.342Z,3.22
2022-10-19T15:24:25.468Z,2.85
2022-10-19T15:27:01.782Z,2.92
2022-10-19T15:29:33.001Z,3.08
2022-10-19T15:31:59.175Z,2.97
2022-10-19T15:34:25.287Z,2.92
2022-10-19T15:36:51.447Z,3.55
2022-10-19T15:39:25.240Z,3.15
2022-10-19T15:44:25.010Z,2.67
2022-10-19T15:46:51.269Z,2.90
2022-10-19T15:49:17.471Z,2.60
2022-10-19T15:51:43.627Z,3.13
2022-10-19T15:54:09.769Z,3.28
2022-10-19T15:56:35.888Z,3.42
2022-10-19T15:59:05.891Z,3.10
2022-10-19T16:01:32.082Z,2.97
2022-10-19T16:03:58.241Z,2.78
2022-10-19T16:06:24.381Z,3.30
2022-10-19T16:08:50.592Z,2.97
2022-10-19T16:11:16.920Z,2.92
2022-10-19T16:13:43.043Z,3.28
2022-10-19T16:16:11.303Z,3.47
2022-10-19T16:18:37.801Z,3.20
2022-10-19T16:21:04.068Z,2.65
2022-10-19T16:23:30.227Z,3.92
2022-10-19T16:25:56.355Z,3.25
2022-10-19T16:28:22.465Z,3.50
2022-10-19T16:30:48.607Z,3.60
2022-10-19T16:33:14.733Z,3.40
2022-10-19T16:35:40.860Z,3.03
2022-10-19T16:38:06.967Z,3.22
2022-10-19T16:40:33.115Z,2.97
2022-10-19T16:42:59.490Z,3.00
2022-10-19T16:45:25.706Z,3.38
2022-10-19T16:47:51.893Z,3.40
2022-10-19T16:50:18.087Z,4.18
2022-10-19T16:52:44.233Z,3.88
2022-10-19T16:55:10.357Z,3.92
2022-10-19T16:57:36.506Z,4.10
2022-10-19T17:00:02.666Z,3.80
2022-10-19T17:02:28.786Z,3.72
2022-10-19T17:04:54.944Z,3.90
2022-10-19T17:07:21.117Z,4.47
2022-10-19T17:09:49.727Z,4.00
2022-10-19T17:14:44.642Z,3.63
2022-10-19T17:17:10.798Z,4.05
2022-10-19T17:19:36.974Z,4.03
2022-10-19T17:24:53.806Z,4.10
2022-10-19T17:27:20.006Z,3.83
2022-10-19T17:29:46.207Z,4.22
2022-10-19T17:32:12.458Z,4.35
2022-10-19T17:34:38.616Z,4.40
2022-10-19T17:37:04.748Z,4.07
2022-10-19T17:39:31.034Z,3.97
2022-10-19T17:41:57.167Z,3.78
2022-10-19T17:44:23.258Z,4.38
2022-10-19T17:46:49.405Z,4.13
2022-10-19T17:49:15.927Z,3.63
2022-10-19T17:51:42.067Z,4.00
2022-10-19T17:54:08.304Z,4.47
2022-10-19T17:56:34.486Z,4.50
2022-10-19T17:59:00.627Z,4.50
2022-10-19T18:01:26.751Z,3.90
2022-10-19T18:03:52.924Z,4.43
2022-10-19T18:06:19.096Z,4.85
2022-10-19T18:08:45.322Z,5.30
2022-10-19T18:11:11.494Z,6.15
2022-10-19T18:13:40.741Z,5.43
2022-10-19T18:16:06.865Z,5.65
2022-10-19T18:21:24.001Z,5.65
2022-10-19T18:23:50.134Z,5.93
2022-10-19T18:26:16.269Z,5.85
2022-10-19T18:28:42.381Z,6.28
2022-10-19T18:31:08.522Z,6.15
2022-10-19T18:33:34.673Z,6.20
2022-10-19T18:36:00.804Z,6.05
2022-10-19T18:38:26.980Z,6.30
2022-10-19T18:40:53.138Z,6.47
2022-10-19T18:43:19.300Z,6.78
2022-10-19T18:45:45.436Z,6.60
2022-10-19T18:48:11.615Z,6.30
2022-10-19T18:50:37.726Z,8.02
2022-10-19T18:53:03.892Z,6.30
2022-10-19T18:55:30.046Z,6.57
2022-10-19T18:57:56.278Z,7.55
2022-10-19T19:00:22.438Z,7.68
2022-10-19T19:02:48.826Z,7.53
2022-10-19T19:05:15.178Z,8.07
2022-10-19T19:07:41.323Z,7.55
2022-10-19T19:10:07.500Z,8.00
2022-10-19T19:12:34.012Z,7.70
2022-10-19T19:15:00.362Z,7.65
2022-10-19T19:17:26.510Z,7.82
2022-10-19T19:19:52.642Z,7.40
2022-10-19T19:22:18.795Z,8.02
2022-10-19T19:24:44.914Z,6.70
2022-10-19T19:27:11.087Z,7.75
2022-10-19T19:29:37.224Z,7.70
2022-10-19T19:32:03.381Z,7.40
2022-10-19T19:34:29.518Z,8.82
2022-10-19T19:36:58.388Z,8.10
2022-10-19T19:39:24.529Z,8.45
2022-10-19T19:41:50.702Z,8.70
2022-10-19T19:44:16.870Z,8.00
2022-10-19T19:46:43.014Z,8.00
2022-10-19T19:49:09.121Z,8.70
2022-10-19T19:51:35.286Z,8.30
2022-10-19T19:54:01.445Z,8.93
2022-10-19T19:56:27.606Z,8.85
2022-10-19T19:58:53.738Z,8.02
2022-10-19T20:01:19.919Z,8.43
2022-10-19T20:03:46.135Z,8.00
2022-10-19T20:06:12.261Z,9.20
2022-10-19T20:08:38.540Z,8.77
2022-10-19T20:11:04.707Z,8.32
2022-10-19T20:13:30.840Z,7.75
2022-10-19T20:15:56.995Z,8.80
2022-10-19T20:18:23.132Z,8.38
2022-10-19T20:20:49.304Z,8.25
2022-10-19T20:23:15.490Z,8.35
2022-10-19T20:25:41.619Z,7.53
2022-10-19T20:28:07.770Z,8.48
2022-10-19T20:30:33.948Z,8.35
2022-10-19T20:33:00.133Z,7.60
2022-10-19T20:35:26.267Z,8.30
2022-10-19T20:37:52.518Z,7.82
2022-10-19T20:40:18.670Z,7.85
2022-10-19T20:42:44.895Z,8.70
2022-10-19T20:45:11.046Z,8.02
2022-10-19T20:47:37.201Z,7.90
2022-10-19T20:50:05.005Z,7.30
2022-10-19T20:52:31.391Z,7.82
2022-10-19T20:54:57.566Z,7.95
2022-10-19T20:57:23.750Z,7.40
2022-10-19T20:59:51.817Z,7.93
2022-10-19T21:02:17.995Z,7.43
2022-10-19T21:04:44.165Z,8.00
2022-10-19T21:07:10.493Z,7.97
2022-10-19T21:09:36.711Z,8.02
2022-10-19T21:12:02.916Z,7.55
2022-10-19T21:14:29.161Z,7.13
2022-10-19T21:16:55.693Z,7.72
2022-10-19T21:19:21.800Z,7.65
2022-10-19T21:21:47.993Z,7.20
2022-10-19T21:24:14.130Z,7.70
2022-10-19T21:26:40.325Z,7.07
2022-10-19T21:29:06.571Z,7.15
2022-10-19T21:31:32.695Z,7.68
2022-10-19T21:33:58.840Z,7.00
2022-10-19T21:36:24.963Z,7.00
2022-10-19T21:38:51.126Z,8.10
2022-10-19T21:41:19.778Z,6.78
2022-10-19T21:43:49.691Z,7.80
2022-10-19T21:46:15.836Z,8.00
2022-10-19T21:48:41.942Z,7.35
2022-10-19T21:51:08.043Z,7.22
2022-10-19T21:53:34.225Z,7.07
2022-10-19T21:56:00.352Z,7.80
2022-10-19T21:58:26.472Z,6.95
2022-10-19T22:00:52.597Z,7.00
2022-10-19T22:03:18.741Z,7.50
2022-10-19T22:05:44.875Z,6.75
2022-10-19T22:08:11.004Z,6.90
2022-10-19T22:10:37.174Z,6.93
2022-10-19T22:13:03.327Z,6.53
2022-10-19T22:15:29.453Z,6.35
2022-10-19T22:17:55.588Z,7.13
2022-10-19T22:20:21.723Z,6.90
2022-10-19T22:22:50.280Z,7.25
2022-10-19T22:25:18.898Z,7.10
2022-10-19T22:27:45.018Z,7.40
2022-10-19T22:30:11.169Z,7.35
2022-10-19T22:32:37.775Z,7.05
2022-10-19T22:35:04.279Z,7.10
2022-10-19T22:37:30.405Z,7.60
2022-10-19T22:39:56.546Z,6.95
2022-10-19T22:42:22.655Z,7.68
2022-10-19T22:44:48.805Z,7.57
2022-10-19T22:47:14.943Z,7.75
2022-10-19T22:49:41.062Z,7.85
2022-10-19T22:52:07.186Z,7.47
2022-10-19T22:54:33.314Z,7.90
2022-10-19T22:56:59.419Z,8.38
2022-10-19T22:59:25.561Z,7.68
2022-10-19T23:01:51.835Z,7.80
2022-10-19T23:04:17.985Z,7.47
2022-10-19T23:06:44.125Z,6.85
2022-10-19T23:09:10.246Z,7.50
2022-10-19T23:11:36.375Z,7.63
2022-10-19T23:14:02.539Z,7.32
2022-10-19T23:18:59.728Z,7.88
2022-10-19T23:21:25.853Z,7.85
2022-10-19T23:23:51.968Z,7.05
2022-10-19T23:26:18.072Z,8.13
2022-10-19T23:28:44.223Z,8.13
2022-10-19T23:31:10.354Z,8.20
2022-10-19T23:33:36.465Z,7.97
2022-10-19T23:36:02.600Z,8.20
2022-10-19T23:38:28.755Z,7.60
2022-10-19T23:40:54.879Z,7.93
2022-10-19T23:43:21.011Z,7.80
2022-10-19T23:45:47.183Z,7.80
2022-10-19T23:48:13.320Z,7.60
2022-10-19T23:50:39.486Z,7.50
2022-10-19T23:53:05.749Z,7.13
2022-10-19T23:55:31.943Z,7.57
2022-10-19T23:57:58.063Z,7.50
